Nevada, Indiana
Current Conditions -  °F | °C
As of 11:15 AM on Thursday 27 Nov 2014 (Local Time) from KOKK Reporting Station
Broken Clouds Broken Clouds  
Wind Chill: 18°   Ceiling: 2900
Heat Index: 28°   Visibility: 3mi
Dew Point: 25°   Wind: 13mph
Humidity: 86%   Direction: 290°WNW
Pressure: 30.29"   Gusts: NA
Location:  40.3618°N, 86.1268°W
Report Text: KOKK 271615Z AUTO 29011KT 3SM FEW011 SCT016 BKN029 M02/M04 A3029 RMK AO1
Loading
Personal Weather Stations






























Interactive Weather Map New forecast layout! Learn more

10-Day Weather Forecast

Advertisements
Track Severe Weather on mobile